KPSK/PSK METAR and TAF weather

Enter ICAO airport designator
Station Type Date Time Source
KPSK METAR 2019/02/16 06:55 UTC NOAA

KPSK 160655Z AUTO 03003KT 10SM SCT049 BKN055 OVC065 05/03 A2982 RMK AO2 T00450032


Station Type Date Time Source
KPSK Decoded METAR 2019/02/16 06:55 UTC NOAA

Dublin / New River Valley, VA, United States (KPSK) 37-08N 080-41W
Feb 16, 2019 - 01:55 AM EST / 2019.02.16 0655 UTC
Wind: from the NNE (030 degrees) at 3 MPH (3 KT):0
Visibility: 10 mile(s):0
Sky conditions: overcast
Temperature: 40.1 F (4.5 C)
Dew Point: 37.8 F (3.2 C)
Relative Humidity: 91%
Pressure (altimeter): 29.82 in. Hg (1009 hPa)
ob: KPSK 160655Z AUTO 03003KT 10SM SCT049 BKN055 OVC065 05/03 A2982 RMK AO2 T00450032
cycle: 7

Station Type Date Time Source
KPSK TAF UTC NOAA

Error!


Example: see airport list